createdAt,value
2023-03-25T00:01:19.774Z,13.48
2023-03-25T00:03:50.787Z,13.49
2023-03-25T00:06:20.018Z,13.49
2023-03-25T00:08:48.263Z,13.46
2023-03-25T00:11:19.294Z,13.47
2023-03-25T00:13:49.213Z,13.45
2023-03-25T00:16:19.166Z,13.46
2023-03-25T00:18:48.199Z,13.46
2023-03-25T00:21:18.776Z,13.43
2023-03-25T00:23:47.198Z,13.40
2023-03-25T00:26:15.916Z,13.38
2023-03-25T00:28:44.745Z,13.36
2023-03-25T00:31:16.274Z,13.32
2023-03-25T00:33:44.625Z,13.31
2023-03-25T00:36:14.843Z,13.31
2023-03-25T00:38:43.975Z,13.29
2023-03-25T00:41:22.973Z,13.27
2023-03-25T00:43:53.918Z,13.26
2023-03-25T00:46:27.859Z,13.24
2023-03-25T00:48:57.377Z,13.22
2023-03-25T00:51:27.301Z,13.11
2023-03-25T00:54:00.263Z,13.11
2023-03-25T00:56:29.529Z,13.09
2023-03-25T00:58:58.371Z,13.07
2023-03-25T01:01:30.338Z,13.04
2023-03-25T01:04:00.740Z,13.03
2023-03-25T01:06:34.840Z,13.04
2023-03-25T01:09:07.793Z,13.02
2023-03-25T01:11:40.842Z,13.03
2023-03-25T01:14:14.280Z,13.01
2023-03-25T01:16:45.521Z,13.01
2023-03-25T01:19:15.421Z,12.97
2023-03-25T01:21:45.330Z,12.98
2023-03-25T01:24:15.833Z,12.98
2023-03-25T01:26:46.093Z,12.99
2023-03-25T01:29:19.417Z,12.96
2023-03-25T01:31:49.473Z,12.98
2023-03-25T01:34:18.029Z,12.98
2023-03-25T01:36:46.889Z,12.98
2023-03-25T01:39:18.714Z,13.00
2023-03-25T01:41:50.921Z,13.00
2023-03-25T01:45:14.994Z,12.97
2023-03-25T01:47:45.985Z,12.88
2023-03-25T01:50:21.167Z,12.93
2023-03-25T01:52:53.192Z,12.91
2023-03-25T01:55:21.635Z,12.91
2023-03-25T01:57:54.427Z,12.92
2023-03-25T02:00:24.811Z,12.93
2023-03-25T02:02:58.871Z,12.91
2023-03-25T02:05:43.773Z,12.90
2023-03-25T02:08:12.346Z,12.91
2023-03-25T02:10:40.692Z,12.91
2023-03-25T02:13:09.109Z,12.91
2023-03-25T02:15:55.367Z,12.91
2023-03-25T02:18:40.219Z,12.89
2023-03-25T02:22:01.187Z,12.86
2023-03-25T02:25:16.131Z,12.85
2023-03-25T02:27:58.668Z,12.84
2023-03-25T02:31:05.804Z,12.85
2023-03-25T02:34:29.307Z,12.84
2023-03-25T02:37:52.389Z,12.82
2023-03-25T02:40:28.037Z,12.80
2023-03-25T02:43:04.678Z,12.81
2023-03-25T02:45:37.198Z,12.82
2023-03-25T02:48:14.261Z,12.82
2023-03-25T02:50:47.022Z,12.81
2023-03-25T02:53:23.567Z,12.81
2023-03-25T02:55:59.272Z,12.77
2023-03-25T02:58:30.119Z,12.75
2023-03-25T03:00:59.059Z,12.75
2023-03-25T03:03:28.853Z,12.72
2023-03-25T03:06:01.146Z,12.69
2023-03-25T03:08:51.318Z,12.65
2023-03-25T03:11:30.286Z,12.63
2023-03-25T03:14:16.969Z,12.57
2023-03-25T03:16:58.486Z,12.55
2023-03-25T03:19:40.270Z,12.52
2023-03-25T03:22:22.512Z,12.50
2023-03-25T03:24:56.119Z,12.47
2023-03-25T03:27:34.027Z,12.46
2023-03-25T03:30:13.145Z,12.43
2023-03-25T03:32:48.421Z,12.39
2023-03-25T03:35:23.410Z,12.34
2023-03-25T03:37:58.315Z,12.33
2023-03-25T03:40:31.641Z,12.29
2023-03-25T03:43:04.949Z,12.25
2023-03-25T03:45:38.672Z,12.21
2023-03-25T03:48:13.423Z,12.17
2023-03-25T03:50:53.219Z,12.12
2023-03-25T03:53:27.421Z,12.10
2023-03-25T03:56:01.943Z,12.08
2023-03-25T03:58:36.166Z,12.07
2023-03-25T04:01:10.879Z,12.07
2023-03-25T04:03:45.633Z,12.03
2023-03-25T04:06:22.120Z,12.03
2023-03-25T04:08:58.973Z,12.04
2023-03-25T04:11:34.119Z,12.06
2023-03-25T04:14:06.149Z,12.08
2023-03-25T04:16:36.130Z,12.11
2023-03-25T04:19:05.453Z,12.12
2023-03-25T04:21:37.320Z,12.11
2023-03-25T04:24:08.220Z,12.14
2023-03-25T04:26:38.162Z,12.10
2023-03-25T04:29:09.489Z,12.09
2023-03-25T04:31:46.641Z,12.11
2023-03-25T04:34:15.853Z,12.13
2023-03-25T04:36:44.204Z,12.13
2023-03-25T04:39:12.919Z,12.12
2023-03-25T04:41:41.372Z,12.14
2023-03-25T04:44:11.388Z,12.13
2023-03-25T04:46:41.351Z,12.14
2023-03-25T04:49:19.209Z,12.13
2023-03-25T04:51:49.521Z,12.13
2023-03-25T04:54:18.368Z,12.12
2023-03-25T04:56:47.751Z,12.11
2023-03-25T04:59:18.241Z,12.10
2023-03-25T05:01:47.255Z,12.06
2023-03-25T05:04:18.416Z,12.02
2023-03-25T05:06:51.571Z,12.01
2023-03-25T05:09:23.119Z,11.97
2023-03-25T05:11:53.111Z,11.95
2023-03-25T05:14:23.668Z,11.95
2023-03-25T05:16:52.116Z,11.93
2023-03-25T05:19:20.909Z,11.94
2023-03-25T05:21:49.597Z,11.88
2023-03-25T05:24:17.885Z,11.82
2023-03-25T05:26:46.243Z,11.82
2023-03-25T05:29:16.656Z,11.78
2023-03-25T05:31:48.636Z,11.80
2023-03-25T05:34:17.227Z,11.84
2023-03-25T05:36:45.971Z,11.84
2023-03-25T05:39:14.440Z,11.88
2023-03-25T05:41:45.653Z,11.92
2023-03-25T05:44:15.544Z,11.88
2023-03-25T05:46:45.331Z,11.94
2023-03-25T05:49:13.627Z,11.94
2023-03-25T05:51:45.265Z,11.96
2023-03-25T05:54:16.111Z,11.98
2023-03-25T05:56:44.473Z,12.00
2023-03-25T05:59:14.487Z,12.00
2023-03-25T06:01:45.698Z,12.00
2023-03-25T06:04:21.937Z,12.01
2023-03-25T06:06:50.428Z,11.99
2023-03-25T06:09:19.048Z,12.02
2023-03-25T06:11:53.428Z,12.06
2023-03-25T06:14:25.686Z,12.08
2023-03-25T06:16:54.051Z,12.10
2023-03-25T06:19:26.786Z,12.12
2023-03-25T06:21:55.203Z,12.12
2023-03-25T06:24:26.289Z,12.14
2023-03-25T06:26:54.662Z,12.15
2023-03-25T06:29:22.950Z,12.19
2023-03-25T06:31:51.235Z,12.21
2023-03-25T06:34:19.806Z,12.22
2023-03-25T06:36:50.146Z,12.26
2023-03-25T06:39:19.064Z,12.27
2023-03-25T06:41:47.435Z,12.34
2023-03-25T06:44:16.803Z,12.38
2023-03-25T06:46:53.626Z,12.42
2023-03-25T06:49:21.988Z,12.47
2023-03-25T06:51:51.601Z,12.49
2023-03-25T06:54:30.029Z,12.50
2023-03-25T06:56:58.423Z,12.55
2023-03-25T06:59:26.916Z,12.54
2023-03-25T07:01:55.231Z,12.61
2023-03-25T07:04:23.654Z,12.66
2023-03-25T07:06:54.104Z,12.71
2023-03-25T07:09:23.433Z,12.76
2023-03-25T07:11:51.715Z,12.77
2023-03-25T07:14:25.572Z,12.80
2023-03-25T07:16:53.854Z,12.83
2023-03-25T07:19:24.232Z,12.93
2023-03-25T07:21:53.869Z,13.01
2023-03-25T07:24:22.342Z,12.98
2023-03-25T07:26:50.628Z,13.03
2023-03-25T07:29:19.096Z,13.10
2023-03-25T07:31:47.492Z,13.13
2023-03-25T07:34:15.865Z,13.07
2023-03-25T07:36:44.146Z,13.10
2023-03-25T07:39:13.869Z,13.11
2023-03-25T07:41:43.008Z,13.11
2023-03-25T07:44:12.371Z,13.12
2023-03-25T07:46:49.073Z,13.09
2023-03-25T07:49:18.106Z,13.11
2023-03-25T07:51:47.191Z,13.14
2023-03-25T07:54:16.869Z,13.01
2023-03-25T07:56:45.227Z,13.10
2023-03-25T07:59:13.540Z,13.11
2023-03-25T08:01:47.491Z,13.16
2023-03-25T08:04:15.770Z,13.25
2023-03-25T08:06:44.210Z,13.33
2023-03-25T08:09:12.544Z,13.37
2023-03-25T08:11:42.226Z,13.40
2023-03-25T08:14:10.585Z,13.47
2023-03-25T08:16:38.873Z,13.53
2023-03-25T08:19:07.770Z,13.58
2023-03-25T08:21:36.100Z,13.70
2023-03-25T08:24:04.977Z,13.86
2023-03-25T08:26:39.838Z,14.09
2023-03-25T08:29:10.247Z,14.31
2023-03-25T08:31:41.614Z,14.54
2023-03-25T08:34:09.975Z,14.76
2023-03-25T08:36:39.479Z,14.91
2023-03-25T08:39:11.868Z,15.02
2023-03-25T08:41:40.521Z,15.21
2023-03-25T08:44:10.321Z,15.35
2023-03-25T08:46:39.209Z,15.47
2023-03-25T08:49:07.620Z,15.62
2023-03-25T08:51:35.894Z,15.78
2023-03-25T08:54:05.732Z,15.96
2023-03-25T08:56:34.048Z,16.14
2023-03-25T08:59:02.368Z,16.33
2023-03-25T09:01:32.051Z,16.47
2023-03-25T09:04:00.581Z,16.51
2023-03-25T09:06:28.844Z,16.62
2023-03-25T09:09:16.593Z,16.75
2023-03-25T09:11:47.950Z,16.79
2023-03-25T09:14:16.441Z,16.75
2023-03-25T09:16:46.026Z,16.80
2023-03-25T09:19:14.291Z,16.82
2023-03-25T09:21:42.622Z,16.85
2023-03-25T09:24:12.582Z,16.89
2023-03-25T09:26:41.021Z,16.90
2023-03-25T09:29:09.387Z,16.91
2023-03-25T09:31:37.739Z,16.94
2023-03-25T09:34:07.595Z,16.99
2023-03-25T09:36:40.197Z,16.90
2023-03-25T09:39:08.562Z,16.97
2023-03-25T09:41:55.849Z,16.94
2023-03-25T09:44:36.910Z,16.94
2023-03-25T09:47:05.897Z,17.02
2023-03-25T09:49:41.520Z,17.14
2023-03-25T09:52:18.262Z,17.25
2023-03-25T09:54:51.932Z,17.33
2023-03-25T09:57:25.471Z,17.41
2023-03-25T09:59:54.695Z,17.42
2023-03-25T10:02:40.772Z,17.43
2023-03-25T10:05:33.592Z,17.56
2023-03-25T10:08:16.245Z,17.72
2023-03-25T10:10:52.527Z,17.82
2023-03-25T10:13:28.783Z,17.92
2023-03-25T10:16:03.204Z,18.12
2023-03-25T10:18:49.708Z,18.31
2023-03-25T10:21:25.063Z,18.43
2023-03-25T10:24:05.910Z,18.62
2023-03-25T10:26:42.447Z,18.69
2023-03-25T10:29:17.399Z,18.77
2023-03-25T10:31:54.105Z,18.77
2023-03-25T10:34:36.105Z,18.76
2023-03-25T10:37:12.655Z,18.74
2023-03-25T10:39:45.501Z,18.72
2023-03-25T10:42:23.037Z,18.68
2023-03-25T10:44:51.533Z,18.65
2023-03-25T10:47:24.896Z,18.54
2023-03-25T10:49:59.189Z,18.45
2023-03-25T10:52:29.037Z,18.33
2023-03-25T10:54:58.393Z,18.22
2023-03-25T10:57:30.994Z,18.14
2023-03-25T11:00:06.714Z,17.93
2023-03-25T11:02:35.735Z,17.83
2023-03-25T11:05:07.088Z,17.75
2023-03-25T11:07:39.161Z,17.69
2023-03-25T11:10:22.558Z,17.71
2023-03-25T11:12:52.816Z,17.68
2023-03-25T11:15:24.713Z,17.63
2023-03-25T11:18:06.300Z,17.56
2023-03-25T11:20:41.200Z,17.56
2023-03-25T11:23:23.434Z,17.49
2023-03-25T11:25:52.136Z,17.46
2023-03-25T11:28:27.584Z,17.41
2023-03-25T11:31:16.642Z,17.43
2023-03-25T11:33:47.832Z,17.43
2023-03-25T11:36:28.503Z,17.44
2023-03-25T11:39:04.452Z,17.48
2023-03-25T11:41:35.562Z,17.48
2023-03-25T11:44:06.981Z,17.52
2023-03-25T11:46:38.167Z,17.48
2023-03-25T11:49:12.102Z,17.47
2023-03-25T11:51:41.084Z,17.52
2023-03-25T11:54:15.452Z,17.47
2023-03-25T11:56:45.914Z,17.48
2023-03-25T11:59:24.807Z,17.48
2023-03-25T12:02:02.976Z,17.52
2023-03-25T12:04:32.448Z,17.55
2023-03-25T12:07:03.416Z,17.64
2023-03-25T12:09:33.584Z,17.81
2023-03-25T12:12:44.544Z,17.95
2023-03-25T12:15:25.424Z,18.13
2023-03-25T12:18:06.992Z,18.28
2023-03-25T12:20:46.842Z,18.38
2023-03-25T12:23:27.302Z,18.37
2023-03-25T12:26:08.107Z,18.42
2023-03-25T12:29:05.984Z,18.44
2023-03-25T12:31:47.300Z,18.53
2023-03-25T12:34:31.230Z,18.58
2023-03-25T12:37:12.779Z,18.62
2023-03-25T12:40:07.905Z,18.65
2023-03-25T12:42:48.668Z,18.67
2023-03-25T12:45:33.020Z,18.71
2023-03-25T12:48:12.524Z,18.71
2023-03-25T12:50:54.708Z,18.77
2023-03-25T12:53:42.769Z,18.63
2023-03-25T12:56:43.991Z,18.56
2023-03-25T12:59:38.820Z,18.44
2023-03-25T13:02:22.504Z,18.15
2023-03-25T13:05:07.234Z,17.92
2023-03-25T13:07:40.954Z,17.70
2023-03-25T13:10:19.208Z,17.52
2023-03-25T13:12:51.739Z,17.33
2023-03-25T13:15:27.347Z,17.17
2023-03-25T13:18:00.136Z,17.04
2023-03-25T13:20:34.088Z,16.90
2023-03-25T13:23:06.337Z,16.80
2023-03-25T13:25:44.042Z,16.62
2023-03-25T13:28:17.936Z,16.47
2023-03-25T13:30:49.418Z,16.38
2023-03-25T13:33:22.123Z,16.29
2023-03-25T13:35:55.166Z,16.20
2023-03-25T13:38:30.866Z,16.10
2023-03-25T13:41:11.600Z,15.94
2023-03-25T13:43:52.540Z,15.90
2023-03-25T13:46:27.000Z,15.79
2023-03-25T13:49:00.492Z,15.67
2023-03-25T13:51:29.273Z,15.59
2023-03-25T13:54:02.759Z,15.46
2023-03-25T13:57:19.664Z,15.23
2023-03-25T14:00:24.909Z,15.03
2023-03-25T14:03:32.543Z,14.86
2023-03-25T14:06:36.714Z,14.80
2023-03-25T14:09:50.413Z,14.70
2023-03-25T14:12:23.426Z,14.65
2023-03-25T14:14:58.379Z,14.62
2023-03-25T14:17:28.181Z,14.55
2023-03-25T14:20:01.157Z,14.47
2023-03-25T14:22:33.853Z,14.48
2023-03-25T14:25:02.338Z,14.52
2023-03-25T14:27:34.169Z,14.59
2023-03-25T14:30:05.916Z,14.70
2023-03-25T14:32:37.863Z,14.84
2023-03-25T14:35:51.851Z,14.99
2023-03-25T14:38:56.368Z,15.15
2023-03-25T14:42:02.938Z,15.27
2023-03-25T14:44:41.297Z,15.35
2023-03-25T14:47:31.963Z,15.42
2023-03-25T14:50:18.300Z,15.43
2023-03-25T14:52:53.357Z,15.43
2023-03-25T14:55:27.768Z,15.45
2023-03-25T14:58:00.710Z,15.43
2023-03-25T15:00:34.376Z,15.38
2023-03-25T15:03:06.821Z,15.28
2023-03-25T15:05:37.159Z,15.21
2023-03-25T15:08:16.818Z,15.14
2023-03-25T15:10:49.905Z,15.12
2023-03-25T15:13:26.088Z,15.04
2023-03-25T15:16:03.780Z,14.94
2023-03-25T15:19:02.689Z,14.84
2023-03-25T15:22:21.522Z,14.78
2023-03-25T15:24:57.180Z,14.78
2023-03-25T15:28:03.732Z,14.81
2023-03-25T15:31:01.990Z,14.87
2023-03-25T15:33:52.486Z,14.93
2023-03-25T15:36:45.784Z,15.00
2023-03-25T15:39:33.306Z,14.99
2023-03-25T15:43:08.628Z,14.96
2023-03-25T15:46:03.757Z,14.94
2023-03-25T15:49:03.073Z,14.93
2023-03-25T15:51:48.366Z,14.91
2023-03-25T15:54:31.031Z,14.84
2023-03-25T15:57:04.832Z,14.76
2023-03-25T15:59:42.041Z,14.62
2023-03-25T16:02:26.649Z,14.45
2023-03-25T16:04:56.284Z,14.28
2023-03-25T16:07:30.508Z,14.15
2023-03-25T16:10:13.067Z,14.03
2023-03-25T16:12:45.016Z,13.92
2023-03-25T16:15:17.415Z,13.84
2023-03-25T16:17:48.415Z,13.75
2023-03-25T16:20:20.928Z,13.68
2023-03-25T16:22:53.319Z,13.64
2023-03-25T16:25:25.080Z,13.58
2023-03-25T16:27:57.288Z,13.55
2023-03-25T16:30:30.647Z,13.53
2023-03-25T16:33:16.824Z,13.48
2023-03-25T16:35:48.324Z,13.45
2023-03-25T16:38:20.291Z,13.42
2023-03-25T16:40:55.819Z,13.40
2023-03-25T16:43:28.284Z,13.37
2023-03-25T16:46:00.773Z,13.37
2023-03-25T16:48:33.567Z,13.34
2023-03-25T16:51:08.408Z,13.32
2023-03-25T16:53:40.205Z,13.29
2023-03-25T16:56:25.129Z,13.26
2023-03-25T16:59:00.304Z,13.23
2023-03-25T17:01:30.147Z,13.22
2023-03-25T17:04:17.030Z,13.19
2023-03-25T17:06:52.983Z,13.15
2023-03-25T17:09:24.774Z,13.14
2023-03-25T17:11:57.943Z,13.09
2023-03-25T17:14:33.464Z,13.07
2023-03-25T17:17:26.423Z,13.04
2023-03-25T17:20:00.155Z,12.98
2023-03-25T17:22:33.929Z,12.94
2023-03-25T17:25:18.524Z,12.89
2023-03-25T17:27:49.496Z,12.87
2023-03-25T17:30:22.118Z,12.83
2023-03-25T17:32:53.330Z,12.80
2023-03-25T17:35:28.092Z,12.75
2023-03-25T17:37:58.948Z,12.71
2023-03-25T17:40:29.735Z,12.69
2023-03-25T17:42:58.676Z,12.65
2023-03-25T17:45:27.363Z,12.64
2023-03-25T17:47:55.737Z,12.60
2023-03-25T17:50:27.987Z,12.57
2023-03-25T17:52:57.475Z,12.52
2023-03-25T17:55:25.920Z,12.46
2023-03-25T17:57:54.775Z,12.41
2023-03-25T18:00:23.096Z,12.34
2023-03-25T18:02:51.447Z,12.28
2023-03-25T18:05:19.959Z,12.22
2023-03-25T18:07:49.882Z,12.17
2023-03-25T18:10:20.804Z,12.13
2023-03-25T18:12:49.113Z,12.08
2023-03-25T18:15:17.583Z,12.03
2023-03-25T18:17:45.940Z,11.99
2023-03-25T18:20:18.449Z,11.95
2023-03-25T18:22:46.929Z,11.91
2023-03-25T18:25:16.744Z,11.89
2023-03-25T18:27:46.240Z,11.85
2023-03-25T18:30:21.702Z,11.82
2023-03-25T18:32:50.285Z,11.79
2023-03-25T18:35:18.886Z,11.79
2023-03-25T18:37:48.760Z,11.78
2023-03-25T18:40:23.619Z,11.76
2023-03-25T18:42:52.757Z,11.75
2023-03-25T18:45:23.631Z,11.74
2023-03-25T18:47:53.140Z,11.72
2023-03-25T18:50:28.645Z,11.70
2023-03-25T18:52:58.010Z,11.69
2023-03-25T18:55:29.850Z,11.68
2023-03-25T18:57:58.812Z,11.67
2023-03-25T19:00:31.067Z,11.65
2023-03-25T19:02:59.616Z,11.65
2023-03-25T19:05:29.053Z,11.63
2023-03-25T19:07:57.672Z,11.62
2023-03-25T19:10:30.477Z,11.59
2023-03-25T19:12:59.119Z,11.55
2023-03-25T19:15:32.190Z,11.53
2023-03-25T19:18:01.768Z,11.51
2023-03-25T19:20:33.722Z,11.49
2023-03-25T19:23:03.737Z,11.46
2023-03-25T19:25:33.489Z,11.44
2023-03-25T19:28:01.838Z,11.43
2023-03-25T19:30:31.805Z,11.41
2023-03-25T19:33:01.851Z,11.37
2023-03-25T19:35:32.559Z,11.35
2023-03-25T19:38:03.359Z,11.33
2023-03-25T19:40:35.485Z,11.30
2023-03-25T19:43:05.292Z,11.26
2023-03-25T19:45:34.420Z,11.20
2023-03-25T19:48:02.885Z,11.20
2023-03-25T19:50:33.802Z,11.09
2023-03-25T19:53:06.126Z,11.11
2023-03-25T19:55:36.284Z,11.08
2023-03-25T19:58:07.432Z,11.05
2023-03-25T20:00:35.794Z,11.02
2023-03-25T20:03:04.256Z,10.99
2023-03-25T20:05:36.136Z,10.97
2023-03-25T20:08:05.419Z,10.96
2023-03-25T20:10:35.105Z,10.95
2023-03-25T20:13:03.439Z,10.93
2023-03-25T20:15:31.772Z,10.91
2023-03-25T20:18:00.405Z,10.90
2023-03-25T20:20:28.806Z,10.90
2023-03-25T20:22:57.114Z,10.88
2023-03-25T20:25:25.518Z,10.88
2023-03-25T20:27:55.626Z,10.87
2023-03-25T20:30:24.851Z,10.87
2023-03-25T20:32:53.258Z,10.85
2023-03-25T20:35:22.169Z,10.83
2023-03-25T20:37:52.132Z,10.81
2023-03-25T20:40:27.749Z,10.80
2023-03-25T20:43:04.528Z,10.78
2023-03-25T20:45:33.090Z,10.77
2023-03-25T20:48:01.662Z,10.76
2023-03-25T20:50:30.063Z,10.76
2023-03-25T20:52:58.376Z,10.73
2023-03-25T20:55:26.705Z,10.72
2023-03-25T20:57:55.090Z,10.70
2023-03-25T21:00:24.822Z,10.69
2023-03-25T21:02:54.330Z,10.69
2023-03-25T21:05:22.803Z,10.68
2023-03-25T21:07:51.268Z,10.67
2023-03-25T21:10:20.136Z,10.68
2023-03-25T21:12:49.142Z,10.68
2023-03-25T21:15:17.412Z,10.68
2023-03-25T21:17:47.233Z,10.69
2023-03-25T21:20:15.604Z,10.69
2023-03-25T21:22:45.122Z,10.71
2023-03-25T21:25:16.909Z,10.71
2023-03-25T21:27:46.890Z,10.72
2023-03-25T21:30:16.573Z,10.72
2023-03-25T21:32:46.313Z,10.72
2023-03-25T21:35:14.793Z,10.72
2023-03-25T21:37:43.103Z,10.75
2023-03-25T21:40:13.239Z,10.73
2023-03-25T21:42:42.187Z,10.73
2023-03-25T21:45:13.612Z,10.73
2023-03-25T21:47:42.390Z,10.74
2023-03-25T21:50:14.406Z,10.70
2023-03-25T21:52:47.141Z,10.74
2023-03-25T21:55:17.237Z,10.74
2023-03-25T21:57:47.737Z,10.74
2023-03-25T22:00:19.593Z,10.72
2023-03-25T22:02:48.619Z,10.74
2023-03-25T22:05:18.722Z,10.74
2023-03-25T22:07:47.074Z,10.73
2023-03-25T22:10:15.414Z,10.74
2023-03-25T22:12:43.724Z,10.76
2023-03-25T22:15:12.711Z,10.76
2023-03-25T22:17:41.061Z,10.78
2023-03-25T22:20:12.154Z,10.78
2023-03-25T22:22:42.583Z,10.79
2023-03-25T22:25:11.706Z,10.79
2023-03-25T22:27:40.053Z,10.80
2023-03-25T22:30:11.256Z,10.81
2023-03-25T22:32:39.656Z,10.81
2023-03-25T22:35:11.879Z,10.82
2023-03-25T22:37:42.056Z,10.84
2023-03-25T22:40:12.921Z,10.83
2023-03-25T22:42:41.500Z,10.83
2023-03-25T22:45:11.105Z,10.84
2023-03-25T22:47:39.432Z,10.83
2023-03-25T22:50:08.987Z,10.82
2023-03-25T22:52:37.340Z,10.82
2023-03-25T22:55:08.071Z,10.80
2023-03-25T22:57:36.786Z,10.79
2023-03-25T23:00:12.787Z,10.78
2023-03-25T23:02:41.340Z,10.80
2023-03-25T23:05:11.234Z,10.77
2023-03-25T23:07:39.625Z,10.78
2023-03-25T23:10:09.972Z,10.75
2023-03-25T23:12:38.335Z,10.74
2023-03-25T23:15:10.928Z,10.70
2023-03-25T23:17:39.368Z,10.70
2023-03-25T23:20:09.860Z,10.69
2023-03-25T23:22:38.244Z,10.67
2023-03-25T23:25:09.662Z,10.68
2023-03-25T23:27:39.290Z,10.67
2023-03-25T23:30:09.592Z,10.64
2023-03-25T23:32:38.245Z,10.65
2023-03-25T23:35:09.332Z,10.64
2023-03-25T23:37:37.640Z,10.64
2023-03-25T23:40:11.231Z,10.65
2023-03-25T23:42:39.646Z,10.65
2023-03-25T23:45:09.564Z,10.68
2023-03-25T23:47:38.029Z,10.68
2023-03-25T23:50:07.783Z,10.68
2023-03-25T23:52:36.158Z,10.69
2023-03-25T23:55:04.764Z,10.71
2023-03-25T23:57:34.443Z,10.71
